Time;durP1;ratioP1;P1;durP2;ratioP2;P2;SDS_P1;SDS_P2;PMS_P1;PMS_P2;Temp;Humidity;BMP_temperature;BMP_pressure;BME280_temperature;BME280_humidity;BME280_pressure;Samples;Min_cycle;Max_cycle;Signal;HPM_P1;HPM_P2
2022/05/12 00:01:07;;;;;;;4.38;1.42;;;11.40;99.90;;;;;;5009813;28;20489;-79
2022/05/12 00:03:33;;;;;;;3.55;1.08;;;11.40;99.90;;;;;;5024411;28;20045;-76
2022/05/12 00:05:58;;;;;;;5.22;1.13;;;11.40;99.90;;;;;;5063135;28;20583;-80
2022/05/12 00:08:24;;;;;;;2.72;0.98;;;11.40;99.90;;;;;;5030354;28;20052;-79
2022/05/12 00:10:50;;;;;;;3.47;1.45;;;11.30;99.90;;;;;;5031202;28;20067;-79
2022/05/12 00:13:16;;;;;;;4.90;1.73;;;11.30;99.90;;;;;;5030424;28;20080;-79
2022/05/12 00:15:42;;;;;;;6.90;1.70;;;11.40;99.90;;;;;;5028005;28;20591;-76
2022/05/12 00:18:08;;;;;;;5.38;1.20;;;11.40;99.90;;;;;;5062442;28;20111;-80
2022/05/12 00:20:37;;;;;;;3.85;1.17;;;11.30;99.90;;;;;;5046485;28;20045;-80
2022/05/12 00:23:13;;;;;;;3.97;1.40;;;11.30;99.90;;;;;;5063532;28;20406;-80
2022/05/12 00:25:40;;;;;;;;;;;11.20;99.90;;;;;;5023885;28;20106;-76
2022/05/12 00:28:06;;;;;;;;;;;11.30;99.90;;;;;;5079518;28;20011;-79
2022/05/12 00:30:31;;;;;;;6.38;1.50;;;11.30;99.90;;;;;;5063141;28;20007;-76
2022/05/12 00:32:57;;;;;;;7.25;1.55;;;11.20;99.90;;;;;;5031369;28;20069;-79
2022/05/12 00:35:23;;;;;;;8.40;1.48;;;11.20;99.90;;;;;;5059744;28;20048;-81
2022/05/12 00:37:49;;;;;;;7.28;1.95;;;11.20;99.90;;;;;;5063219;28;20049;-77
2022/05/12 00:40:16;;;;;;;6.53;1.90;;;11.20;99.90;;;;;;5047502;28;20118;-80
2022/05/12 00:43:30;;;;;;;6.30;1.35;;;11.20;99.90;;;;;;5046005;28;20053;-80
2022/05/12 00:45:55;;;;;;;6.80;1.52;;;11.20;99.90;;;;;;5039886;28;20502;-78
2022/05/12 00:48:21;;;;;;;8.85;1.98;;;11.20;99.90;;;;;;5044638;28;20043;-76
2022/05/12 00:50:47;;;;;;;7.97;1.85;;;11.10;99.90;;;;;;5011393;28;20395;-79
2022/05/12 00:53:14;;;;;;;6.10;1.77;;;11.10;99.90;;;;;;5025404;28;20395;-76
2022/05/12 00:55:42;;;;;;;3.50;1.40;;;11.10;99.90;;;;;;5026646;28;20483;-79
2022/05/12 00:58:12;;;;;;;5.28;1.80;;;11.10;99.90;;;;;;5010371;28;20045;-78
2022/05/12 01:00:40;;;;;;;8.02;2.00;;;11.10;99.90;;;;;;5045612;28;20049;-76
2022/05/12 01:03:18;;;;;;;7.25;1.70;;;11.10;99.90;;;;;;5044467;28;20086;-79
2022/05/12 01:05:45;;;;;;;6.68;1.83;;;11.10;99.90;;;;;;5045569;28;20049;-78
2022/05/12 01:08:13;;;;;;;8.07;1.83;;;11.10;99.90;;;;;;5062794;28;20499;-79
2022/05/12 01:10:41;;;;;;;8.60;1.88;;;11.10;99.90;;;;;;5043398;28;20056;-79
2022/05/12 01:13:07;;;;;;;10.50;2.05;;;11.10;99.90;;;;;;5031471;28;20045;-75
2022/05/12 01:15:33;;;;;;;6.43;1.85;;;11.10;99.90;;;;;;5080518;28;20107;-80
2022/05/12 01:18:10;;;;;;;6.80;1.73;;;11.10;99.90;;;;;;5077950;28;20494;-79
2022/05/12 01:20:38;;;;;;;7.95;1.60;;;11.10;99.90;;;;;;5079030;28;20056;-79
2022/05/12 01:23:25;;;;;;;6.10;2.03;;;11.20;99.90;;;;;;5029287;28;21100;-79
2022/05/12 01:26:14;;;;;;;6.47;1.80;;;11.20;99.90;;;;;;5044434;28;20093;-79
2022/05/12 01:28:40;;;;;;;6.93;2.35;;;11.20;99.90;;;;;;5045192;28;20064;-80
2022/05/12 01:31:06;;;;;;;6.47;1.83;;;11.20;99.90;;;;;;5046300;28;20486;-78
2022/05/12 01:33:34;;;;;;;10.05;2.17;;;11.20;99.90;;;;;;5044578;28;20045;-79
2022/05/12 01:36:00;;;;;;;7.80;2.30;;;11.30;99.90;;;;;;5044137;28;20057;-78
2022/05/12 01:38:26;;;;;;;8.82;2.35;;;11.30;99.90;;;;;;5046667;28;20048;-80
2022/05/12 01:40:52;;;;;;;8.65;2.20;;;11.30;99.90;;;;;;5008008;28;20044;-78
2022/05/12 01:43:19;;;;;;;8.52;2.33;;;11.30;99.90;;;;;;5059400;28;20051;-79
2022/05/12 01:45:46;;;;;;;7.65;2.78;;;11.30;99.90;;;;;;5060879;28;20876;-77
2022/05/12 01:48:13;;;;;;;8.23;2.40;;;11.30;99.90;;;;;;5025318;28;20068;-79
2022/05/12 01:50:41;;;;;;;7.57;2.20;;;11.30;99.90;;;;;;5026840;28;20048;-79
2022/05/12 01:53:09;;;;;;;6.03;2.40;;;11.40;99.90;;;;;;5046613;28;20087;-75
2022/05/12 01:55:35;;;;;;;5.53;2.10;;;11.40;99.90;;;;;;5075762;28;20049;-80
2022/05/12 01:58:01;;;;;;;6.97;2.30;;;11.40;99.90;;;;;;5045629;28;20087;-79
2022/05/12 02:00:29;;;;;;;6.70;2.40;;;11.40;99.90;;;;;;5046478;28;20111;-80
2022/05/12 02:02:57;;;;;;;7.90;2.42;;;11.40;99.90;;;;;;5028573;28;20056;-79
2022/05/12 02:05:23;;;;;;;7.00;2.10;;;11.40;99.90;;;;;;5045910;28;20402;-78
2022/05/12 02:07:49;;;;;;;10.20;2.50;;;11.40;99.90;;;;;;5024573;28;20048;-79
2022/05/12 02:10:29;;;;;;;6.93;2.22;;;11.50;99.90;;;;;;5078684;28;20067;-79
2022/05/12 02:12:55;;;;;;;8.80;2.50;;;11.50;99.90;;;;;;5038247;28;20053;-79
2022/05/12 02:15:21;;;;;;;7.18;2.20;;;11.50;99.90;;;;;;5042004;28;20127;-78
2022/05/12 02:17:49;;;;;;;8.50;2.15;;;11.50;99.90;;;;;;5061291;28;20052;-80
2022/05/12 02:20:16;;;;;;;7.68;2.70;;;11.50;99.90;;;;;;5028747;28;20167;-79
2022/05/12 02:22:42;;;;;;;6.70;2.53;;;11.50;99.90;;;;;;5006530;28;20099;-76
2022/05/12 02:25:09;;;;;;;7.47;2.33;;;11.50;99.90;;;;;;5022988;28;20041;-80
2022/05/12 02:27:35;;;;;;;7.55;2.47;;;11.60;99.90;;;;;;5043656;28;20087;-80
2022/05/12 02:30:03;;;;;;;6.97;2.22;;;11.60;99.90;;;;;;5046671;28;20053;-78
2022/05/12 02:32:29;;;;;;;7.85;2.88;;;11.60;99.90;;;;;;5025922;28;20041;-75
2022/05/12 02:34:55;;;;;;;5.53;2.25;;;11.60;99.90;;;;;;5042671;28;20458;-79
2022/05/12 02:37:21;;;;;;;7.22;2.33;;;11.60;99.90;;;;;;5057772;28;20041;-79
2022/05/12 02:39:47;;;;;;;7.15;2.40;;;11.60;99.90;;;;;;5039108;28;20482;-79
2022/05/12 02:42:13;;;;;;;9.75;2.80;;;11.60;99.90;;;;;;5044351;28;20049;-79
2022/05/12 02:44:39;;;;;;;5.40;2.42;;;11.00;99.90;;;;;;5043787;28;20398;-78
2022/05/12 02:47:07;;;;;;;8.10;2.80;;;11.60;99.90;;;;;;5008779;28;20159;-77
2022/05/12 02:49:33;;;;;;;5.47;2.20;;;11.60;99.90;;;;;;5024104;28;20037;-81
2022/05/12 02:51:59;;;;;;;7.13;2.72;;;11.60;99.90;;;;;;5023594;28;20049;-79
2022/05/12 02:54:25;;;;;;;6.00;2.42;;;11.60;99.90;;;;;;5046757;28;20049;-79
2022/05/12 02:56:52;;;;;;;6.75;2.30;;;11.60;99.90;;;;;;5048941;28;20075;-79
2022/05/12 02:59:18;;;;;;;8.20;2.90;;;11.60;99.90;;;;;;5027256;28;20037;-80
2022/05/12 03:01:44;;;;;;;8.38;2.30;;;11.60;99.90;;;;;;5046990;28;20056;-79
2022/05/12 03:04:09;;;;;;;6.60;2.80;;;11.60;99.90;;;;;;5029517;28;20048;-76
2022/05/12 03:06:35;;;;;;;6.07;2.20;;;11.50;99.90;;;;;;5031976;28;20045;-79
2022/05/12 03:09:01;;;;;;;7.72;2.35;;;11.60;99.90;;;;;;5025685;28;20041;-81
2022/05/12 03:11:27;;;;;;;7.35;2.65;;;11.60;99.90;;;;;;5063306;28;20064;-79
2022/05/12 03:13:53;;;;;;;7.10;2.45;;;11.60;99.90;;;;;;5028656;28;20365;-75
2022/05/12 03:16:20;;;;;;;8.75;2.10;;;11.60;99.90;;;;;;5029409;28;20106;-77
2022/05/12 03:18:47;;;;;;;5.40;2.33;;;11.60;99.90;;;;;;5045304;28;20048;-78
2022/05/12 03:21:16;;;;;;;6.63;2.38;;;11.70;99.90;;;;;;5047336;28;20133;-79
2022/05/12 03:23:42;;;;;;;10.48;2.80;;;11.70;99.90;;;;;;5060804;28;20087;-79
2022/05/12 03:26:09;;;;;;;8.85;2.72;;;11.70;99.90;;;;;;5031754;28;20072;-76
2022/05/12 03:28:35;;;;;;;10.20;2.60;;;11.70;99.90;;;;;;5047110;28;20052;-80
2022/05/12 03:31:01;;;;;;;8.48;2.50;;;11.70;99.90;;;;;;5048003;28;20127;-79
2022/05/12 03:33:28;;;;;;;7.55;2.72;;;11.70;99.90;;;;;;5078371;28;20095;-79
2022/05/12 03:35:54;;;;;;;8.20;2.55;;;11.60;99.90;;;;;;5028356;28;20378;-81
2022/05/12 03:38:20;;;;;;;10.40;3.00;;;11.60;99.90;;;;;;5060612;28;20047;-79
2022/05/12 03:40:46;;;;;;;9.88;2.45;;;11.60;99.90;;;;;;5028199;28;20068;-79
2022/05/12 03:44:46;;;;;;;8.18;2.60;;;11.60;99.90;;;;;;5063216;28;20083;-80
2022/05/12 03:45:58;;;;;;;;;;;11.60;99.90;;;;;;5046382;28;20182;-79
2022/05/12 03:48:24;;;;;;;11.17;2.33;;;11.60;99.90;;;;;;5027470;28;19975;-78
2022/05/12 03:50:49;;;;;;;5.95;2.13;;;11.60;99.90;;;;;;5048037;28;20048;-80
2022/05/12 03:53:15;;;;;;;8.52;2.55;;;11.60;99.90;;;;;;5008566;28;20106;-78
2022/05/12 03:55:41;;;;;;;5.90;2.13;;;11.60;99.90;;;;;;5062580;28;20084;-79
2022/05/12 03:58:07;;;;;;;11.75;2.60;;;11.60;99.90;;;;;;5027405;28;20087;-79
2022/05/12 04:00:34;;;;;;;7.32;2.88;;;11.50;99.90;;;;;;5024687;28;20130;-79
2022/05/12 04:03:01;;;;;;;8.70;2.28;;;11.50;99.90;;;;;;5080001;28;20087;-79
2022/05/12 04:05:31;;;;;;;8.07;2.30;;;11.60;99.90;;;;;;5027830;28;20049;-79
2022/05/12 04:07:57;;;;;;;7.35;1.92;;;11.50;99.90;;;;;;5024520;28;20750;-80
2022/05/12 04:10:25;;;;;;;9.05;2.33;;;11.50;99.90;;;;;;5029762;28;20123;-79
2022/05/12 04:12:52;;;;;;;10.00;3.03;;;11.50;99.90;;;;;;5046289;28;20048;-79
2022/05/12 04:15:21;;;;;;;6.97;2.30;;;11.50;99.90;;;;;;5079150;28;20049;-79
2022/05/12 04:18:05;;;;;;;7.80;2.70;;;11.50;99.90;;;;;;5026448;28;20057;-79
2022/05/12 04:20:33;;;;;;;7.50;2.10;;;11.50;99.90;;;;;;5062714;28;20136;-80
2022/05/12 04:22:59;;;;;;;11.10;2.28;;;11.50;99.90;;;;;;5046627;28;20358;-76
2022/05/12 04:25:25;;;;;;;10.20;2.50;;;11.50;99.90;;;;;;5028887;28;20044;-80
2022/05/12 04:27:51;;;;;;;6.68;1.85;;;11.60;99.90;;;;;;5023414;28;20064;-80
2022/05/12 04:30:19;;;;;;;8.23;2.13;;;11.60;99.90;;;;;;5030377;28;20490;-81
2022/05/12 04:32:45;;;;;;;7.30;2.05;;;11.60;99.90;;;;;;5046500;28;20068;-78
2022/05/12 04:35:14;;;;;;;6.22;2.08;;;11.60;99.90;;;;;;5013714;28;20061;-78
2022/05/12 04:37:51;;;;;;;8.65;2.33;;;11.60;99.90;;;;;;5080606;28;20098;-81
2022/05/12 04:40:29;;;;;;;7.68;2.45;;;11.60;99.90;;;;;;5076419;28;20510;-80
2022/05/12 04:42:57;;;;;;;10.60;2.38;;;11.70;99.90;;;;;;5047802;28;20075;-80
2022/05/12 04:45:26;;;;;;;9.65;2.17;;;11.70;99.90;;;;;;5026400;28;20045;-79
2022/05/12 04:47:52;;;;;;;10.35;2.45;;;11.70;99.90;;;;;;5023752;28;20043;-79
2022/05/12 04:50:28;;;;;;;6.50;2.60;;;11.70;99.90;;;;;;5009996;28;20052;-79
2022/05/12 04:52:54;;;;;;;;;;;11.70;99.90;;;;;;5030328;28;20076;-79
2022/05/12 04:55:20;;;;;;;6.32;2.20;;;11.70;99.90;;;;;;5047265;28;19960;-79
2022/05/12 04:57:49;;;;;;;11.68;2.50;;;11.70;99.90;;;;;;5063194;28;20056;-78
2022/05/12 05:00:28;;;;;;;6.97;2.05;;;11.70;99.90;;;;;;5027110;28;20048;-78
2022/05/12 05:02:55;;;;;;;8.02;2.33;;;11.70;99.90;;;;;;5046307;28;20312;-76
2022/05/12 05:05:21;;;;;;;9.82;2.08;;;11.70;99.90;;;;;;5077680;28;20047;-78
2022/05/12 05:07:47;;;;;;;9.38;2.30;;;11.70;99.90;;;;;;5027208;28;20102;-75
2022/05/12 05:10:12;;;;;;;8.63;2.80;;;11.80;99.90;;;;;;5027382;28;20048;-80
2022/05/12 05:12:40;;;;;;;9.45;2.33;;;11.80;99.90;;;;;;5037052;28;20041;-79
2022/05/12 05:15:07;;;;;;;9.48;2.30;;;11.80;99.90;;;;;;5040447;28;20080;-77
2022/05/12 05:17:35;;;;;;;7.38;1.95;;;11.80;99.90;;;;;;5079478;28;20434;-78
2022/05/12 05:20:04;;;;;;;7.40;2.10;;;11.90;99.90;;;;;;5025085;28;20045;-79
2022/05/12 05:22:33;;;;;;;5.65;1.95;;;11.90;99.90;;;;;;5042183;28;20490;-80
2022/05/12 05:25:00;;;;;;;8.50;2.00;;;11.90;99.90;;;;;;5057543;28;20056;-80
2022/05/12 05:27:25;;;;;;;9.43;2.40;;;11.90;99.90;;;;;;5025909;28;20496;-81
2022/05/12 05:29:53;;;;;;;10.75;2.38;;;12.70;99.90;;;;;;5062556;28;20175;-79
2022/05/12 05:32:22;;;;;;;6.85;2.10;;;12.00;99.90;;;;;;5044313;28;20132;-80
2022/05/12 05:34:47;;;;;;;9.00;2.13;;;12.80;99.90;;;;;;5043049;28;20061;-81
2022/05/12 05:37:13;;;;;;;6.50;1.95;;;12.10;99.90;;;;;;5022178;28;20490;-81
2022/05/12 05:39:39;;;;;;;7.65;2.13;;;12.10;99.90;;;;;;5026965;28;20048;-79
2022/05/12 05:42:15;;;;;;;8.80;2.50;;;12.10;99.90;;;;;;5036916;28;20056;-80
2022/05/12 05:44:40;;;;;;;6.82;1.98;;;12.20;99.90;;;;;;5078121;28;20041;-80
2022/05/12 05:47:08;;;;;;;9.52;2.17;;;12.20;99.90;;;;;;5076779;28;20374;-78
2022/05/12 05:49:35;;;;;;;11.02;2.30;;;12.30;99.90;;;;;;5042145;28;20049;-79
2022/05/12 05:54:45;;;;;;;11.43;2.55;;;12.30;99.90;;;;;;5029270;28;20053;-82
2022/05/12 05:57:12;;;;;;;8.25;2.03;;;12.40;99.90;;;;;;5010603;28;20041;-79
2022/05/12 05:59:38;;;;;;;12.18;2.40;;;12.40;99.90;;;;;;5041481;28;20076;-79
2022/05/12 06:02:04;;;;;;;11.02;2.40;;;12.50;99.90;;;;;;5038788;28;20151;-79
2022/05/12 06:04:31;;;;;;;8.93;2.40;;;12.50;99.90;;;;;;5023873;28;20044;-82
2022/05/12 06:06:57;;;;;;;10.00;2.50;;;12.50;99.90;;;;;;5028183;28;20187;-82
2022/05/12 06:09:23;;;;;;;10.32;2.05;;;12.60;99.90;;;;;;5027209;28;20049;-79
2022/05/12 06:11:49;;;;;;;10.77;2.47;;;12.60;99.90;;;;;;5040910;28;20608;-82
2022/05/12 06:14:16;;;;;;;12.90;3.25;;;12.60;99.90;;;;;;5074614;28;20128;-82
2022/05/12 06:16:42;;;;;;;11.15;2.33;;;12.60;99.90;;;;;;5027783;28;20170;-83
2022/05/12 06:19:13;;;;;;;9.27;2.20;;;12.70;99.90;;;;;;5041819;28;20056;-83
2022/05/12 06:21:39;;;;;;;12.10;2.47;;;12.80;99.90;;;;;;5041263;28;20045;-81
2022/05/12 06:24:05;;;;;;;9.40;2.35;;;12.90;99.90;;;;;;5027300;28;20048;-82
2022/05/12 06:26:31;;;;;;;8.48;2.17;;;13.00;99.90;;;;;;5046445;28;20041;-81
2022/05/12 06:28:58;;;;;;;9.55;2.80;;;13.00;99.90;;;;;;5032130;28;20049;-80
2022/05/12 06:31:30;;;;;;;8.05;2.40;;;13.10;99.90;;;;;;5065344;28;20139;-81
2022/05/12 06:33:57;;;;;;;8.85;2.05;;;13.10;99.90;;;;;;5043889;28;20061;-80
2022/05/12 06:36:23;;;;;;;8.90;2.63;;;13.20;99.90;;;;;;5061383;28;20053;-75
2022/05/12 06:38:49;;;;;;;9.20;1.92;;;13.30;99.90;;;;;;5049620;28;20045;-83
2022/05/12 06:41:15;;;;;;;5.28;1.73;;;13.30;99.90;;;;;;5009003;28;20089;-81
2022/05/12 06:43:45;;;;;;;7.68;1.90;;;13.40;99.90;;;;;;5010216;28;20101;-80
2022/05/12 06:46:17;;;;;;;6.60;1.98;;;13.40;99.90;;;;;;5082937;28;20045;-81
2022/05/12 06:48:44;;;;;;;7.43;2.03;;;13.50;99.90;;;;;;5081157;28;20554;-79
2022/05/12 06:51:11;;;;;;;8.27;1.90;;;13.60;99.90;;;;;;5026805;28;20663;-79
2022/05/12 06:53:37;;;;;;;5.05;2.22;;;13.60;99.90;;;;;;5033804;28;20060;-77
2022/05/12 06:56:03;;;;;;;7.10;1.80;;;13.60;99.90;;;;;;5066200;28;20513;-78
2022/05/12 06:58:29;;;;;;;6.28;1.92;;;13.70;99.90;;;;;;5031948;28;20045;-80
2022/05/12 07:00:55;;;;;;;6.70;2.08;;;13.80;99.90;;;;;;5027444;28;20041;-84
2022/05/12 07:03:21;;;;;;;8.15;2.15;;;13.90;99.90;;;;;;5062922;28;20051;-86
2022/05/12 07:05:47;;;;;;;7.50;2.05;;;14.00;99.90;;;;;;5029340;28;20048;-83
2022/05/12 07:08:13;;;;;;;10.68;2.25;;;14.00;99.90;;;;;;5062650;28;20037;-77
2022/05/12 07:10:39;;;;;;;7.18;1.85;;;14.10;99.90;;;;;;5047273;28;20048;-80
2022/05/12 07:13:05;;;;;;;8.88;1.90;;;14.20;99.90;;;;;;5015401;28;20057;-76
2022/05/12 07:15:31;;;;;;;8.07;1.90;;;14.30;99.90;;;;;;5017420;28;20482;-80
2022/05/12 07:17:58;;;;;;;6.30;1.60;;;14.30;99.90;;;;;;5048058;28;20053;-79
2022/05/12 07:28:40;;;;;;;5.18;1.65;;;14.50;99.90;;;;;;5035871;28;20048;-79
2022/05/12 07:31:09;;;;;;;12.73;2.15;;;14.60;99.90;;;;;;5033888;28;20049;-79
2022/05/12 07:33:41;;;;;;;11.32;2.50;;;14.70;99.90;;;;;;5050147;28;20049;-78
2022/05/12 07:36:12;;;;;;;7.50;2.00;;;14.80;99.90;;;;;;5066515;28;20053;-80
2022/05/12 07:38:38;;;;;;;7.68;2.13;;;14.90;99.90;;;;;;5047663;28;20136;-79
2022/05/12 07:41:07;;;;;;;7.47;2.03;;;14.80;99.90;;;;;;5050720;28;20148;-77
2022/05/12 07:43:33;;;;;;;7.97;2.17;;;14.90;99.90;;;;;;5051215;28;20098;-80
2022/05/12 07:45:59;;;;;;;9.15;2.30;;;14.90;99.90;;;;;;5034241;28;20056;-77
2022/05/12 07:48:25;;;;;;;6.40;1.98;;;14.90;99.90;;;;;;5034037;28;20049;-80
2022/05/12 07:50:51;;;;;;;8.10;2.00;;;15.00;99.90;;;;;;5033927;28;20132;-79
2022/05/12 07:53:17;;;;;;;8.13;2.00;;;15.10;99.90;;;;;;5049630;28;20055;-81
2022/05/12 07:55:43;;;;;;;8.70;2.00;;;15.10;99.90;;;;;;5048203;28;20057;-78
2022/05/12 07:58:11;;;;;;;5.75;1.85;;;15.20;99.90;;;;;;5048609;28;20045;-77
2022/05/12 08:00:37;;;;;;;5.90;1.80;;;15.20;99.90;;;;;;5073542;28;20068;-80
2022/05/12 08:03:03;;;;;;;5.97;2.00;;;15.30;99.90;;;;;;5066821;28;20045;-81
2022/05/12 08:05:30;;;;;;;8.00;2.00;;;15.40;99.90;;;;;;5019743;28;20099;-80
2022/05/12 08:07:56;;;;;;;5.55;2.25;;;15.30;99.90;;;;;;5051539;28;20508;-81
2022/05/12 08:10:23;;;;;;;7.28;2.15;;;15.40;99.90;;;;;;5049923;28;20041;-80
2022/05/12 08:12:50;;;;;;;6.65;1.98;;;15.50;99.90;;;;;;5066291;28;20052;-81
2022/05/12 08:15:16;;;;;;;6.68;1.80;;;15.60;99.90;;;;;;5077355;28;20714;-80
2022/05/12 08:17:42;;;;;;;6.15;2.00;;;15.90;99.90;;;;;;5047543;28;20376;-81
2022/05/12 08:20:11;;;;;;;6.15;1.60;;;16.20;99.90;;;;;;5044179;28;20107;-80
2022/05/12 08:22:37;;;;;;;5.97;1.70;;;16.30;99.90;;;;;;5049388;28;20064;-82
2022/05/12 08:25:04;;;;;;;10.82;2.00;;;16.40;99.90;;;;;;5031067;28;20046;-81
2022/05/12 08:27:31;;;;;;;5.55;1.60;;;16.30;99.90;;;;;;5024745;28;20128;-82
2022/05/12 08:29:57;;;;;;;6.22;1.73;;;16.40;99.90;;;;;;5042884;28;20049;-82
2022/05/12 08:32:23;;;;;;;4.68;1.45;;;16.60;99.90;;;;;;5025710;28;20048;-81
2022/05/12 08:34:48;;;;;;;6.63;1.70;;;16.50;99.90;;;;;;5023760;28;20544;-81
2022/05/12 08:37:15;;;;;;;6.50;1.60;;;16.50;99.90;;;;;;5043385;28;20132;-81
2022/05/12 08:39:44;;;;;;;6.00;1.85;;;16.50;99.90;;;;;;5044359;28;20103;-81
2022/05/12 08:42:25;;;;;;;6.22;1.55;;;16.70;99.90;;;;;;5041981;28;20053;-81
2022/05/12 08:44:51;;;;;;;4.82;1.48;;;16.80;99.90;;;;;;5025753;28;20494;-79
2022/05/12 08:47:34;;;;;;;2.88;1.30;;;16.90;99.90;;;;;;5021990;28;20491;-78
2022/05/12 08:50:00;;;;;;;6.80;1.65;;;17.10;99.90;;;;;;5040553;28;20052;-80
2022/05/12 08:52:43;;;;;;;3.97;1.30;;;17.30;99.90;;;;;;5040703;28;20071;-81
2022/05/12 08:55:17;;;;;;;5.95;1.50;;;17.40;99.90;;;;;;5076778;28;20052;-78
2022/05/12 08:58:01;;;;;;;4.07;1.38;;;17.40;99.90;;;;;;5038957;28;20452;-80
2022/05/12 09:00:43;;;;;;;4.35;1.48;;;17.40;99.90;;;;;;5025325;28;20055;-79
2022/05/12 09:03:13;;;;;;;7.40;1.65;;;17.40;99.90;;;;;;5058284;28;20053;-80
2022/05/12 09:05:49;;;;;;;4.10;1.50;;;17.40;99.90;;;;;;5042934;28;20079;-79
2022/05/12 09:08:21;;;;;;;4.60;1.33;;;17.60;99.90;;;;;;5073177;28;20095;-80
2022/05/12 09:10:59;;;;;;;4.60;1.50;;;17.60;99.90;;;;;;5023370;28;20044;-80
2022/05/12 09:13:39;;;;;;;6.57;1.25;;;17.70;99.90;;;;;;5020070;28;20520;-81
2022/05/12 09:16:13;;;;;;;4.22;1.27;;;17.70;99.90;;;;;;5040965;28;20084;-80
2022/05/12 09:18:41;;;;;;;4.90;1.55;;;17.80;99.90;;;;;;5042932;28;20040;-80
2022/05/12 09:21:17;;;;;;;3.42;1.30;;;17.90;99.90;;;;;;5054489;28;20053;-79
2022/05/12 09:23:43;;;;;;;4.97;1.63;;;18.00;99.90;;;;;;5052963;28;20053;-82
2022/05/12 09:26:31;;;;;;;4.97;1.38;;;18.10;99.90;;;;;;5073861;28;20399;-80
2022/05/12 09:29:25;;;;;;;5.50;1.55;;;18.10;99.90;;;;;;5037571;28;20044;-81
2022/05/12 09:31:55;;;;;;;2.85;0.95;;;18.00;99.90;;;;;;5039462;28;20053;-80
2022/05/12 09:34:31;;;;;;;2.22;1.10;;;18.00;99.90;;;;;;5054766;28;20049;-82
2022/05/12 09:37:13;;;;;;;5.88;1.38;;;18.10;99.90;;;;;;5037143;28;20135;-80
2022/05/12 09:39:44;;;;;;;3.53;1.63;;;18.30;99.90;;;;;;5025271;28;20095;-80
2022/05/12 09:42:29;;;;;;;4.18;1.30;;;18.30;99.90;;;;;;5040805;28;20049;-80
2022/05/12 09:45:03;;;;;;;6.20;1.40;;;18.40;99.90;;;;;;5079147;28;20048;-87
2022/05/12 09:47:30;;;;;;;6.85;1.95;;;18.60;99.90;;;;;;5036156;28;20084;-77
2022/05/12 09:50:25;;;;;;;4.40;1.35;;;18.50;99.90;;;;;;5038906;28;20586;-80
2022/05/12 09:52:54;;;;;;;4.80;1.40;;;18.60;99.90;;;;;;5022134;28;20056;-79
2022/05/12 09:55:31;;;;;;;6.05;1.55;;;18.60;99.90;;;;;;5041490;28;20064;-80
2022/05/12 09:57:59;;;;;;;5.00;1.38;;;18.70;99.90;;;;;;5041830;28;20635;-81
2022/05/12 10:00:34;;;;;;;5.90;1.50;;;19.00;99.90;;;;;;5055742;28;20124;-79
2022/05/12 10:09:17;;;;;;;6.43;1.38;;;19.20;99.90;;;;;;5043863;28;20136;-77
2022/05/12 10:11:53;;;;;;;3.90;1.40;;;19.30;99.90;;;;;;5026094;28;20059;-79
2022/05/12 10:14:24;;;;;;;;;;;19.40;99.90;;;;;;5026896;28;20052;-79
2022/05/12 10:16:53;;;;;;;4.63;1.40;;;19.30;99.90;;;;;;5041881;28;19920;-78
2022/05/12 10:19:22;;;;;;;5.05;1.70;;;19.20;99.90;;;;;;5076011;28;20041;-78
2022/05/12 10:21:56;;;;;;;5.55;1.38;;;19.30;99.90;;;;;;5039958;28;20045;-80
2022/05/12 10:24:37;;;;;;;3.67;1.30;;;19.40;99.90;;;;;;5075659;28;20048;-77
2022/05/12 10:27:18;;;;;;;4.10;1.40;;;19.40;99.90;;;;;;5074089;28;20445;-79
2022/05/12 10:30:09;;;;;;;5.07;1.20;;;19.40;99.90;;;;;;5040103;28;20044;-80
2022/05/12 10:32:48;;;;;;;4.03;1.40;;;19.50;99.90;;;;;;5020440;28;20060;-82
2022/05/12 10:35:22;;;;;;;2.97;0.98;;;19.50;99.90;;;;;;5040181;28;20053;-79
2022/05/12 10:37:56;;;;;;;2.83;0.85;;;19.50;99.90;;;;;;5058180;28;20059;-80
2022/05/12 10:40:35;;;;;;;3.60;1.15;;;19.60;99.90;;;;;;5024622;28;20406;-81
2022/05/12 10:43:19;;;;;;;3.85;1.27;;;19.70;99.90;;;;;;5039612;28;20049;-79
2022/05/12 10:46:11;;;;;;;5.10;1.80;;;19.70;99.90;;;;;;5074988;28;20053;-81
2022/05/12 10:48:52;;;;;;;5.43;1.88;;;19.70;99.90;;;;;;5043013;28;20118;-81
2022/05/12 10:51:24;;;;;;;4.70;1.50;;;19.70;99.90;;;;;;5060434;28;20053;-84
2022/05/12 10:54:26;;;;;;;6.75;1.33;;;19.60;99.90;;;;;;5079782;28;20044;-74
2022/05/12 10:57:14;;;;;;;4.60;1.30;;;19.80;99.90;;;;;;5044922;28;20106;-78
2022/05/12 11:00:03;;;;;;;2.95;1.10;;;19.60;99.90;;;;;;5044949;28;20076;-79
2022/05/12 11:02:41;;;;;;;5.78;1.70;;;19.80;99.90;;;;;;5041102;28;20491;-79
2022/05/12 11:05:12;;;;;;;4.53;1.20;;;20.00;99.90;;;;;;5060065;28;20053;-77
2022/05/12 11:07:57;;;;;;;3.65;1.30;;;20.00;99.90;;;;;;5061504;28;20049;-79
2022/05/12 11:10:46;;;;;;;5.27;1.17;;;19.80;99.90;;;;;;5060565;28;20041;-77
2022/05/12 11:13:36;;;;;;;5.30;1.20;;;19.70;99.90;;;;;;5078751;28;20060;-80
2022/05/12 11:16:08;;;;;;;6.03;1.40;;;19.60;99.90;;;;;;5038941;28;20136;-79
2022/05/12 11:18:43;;;;;;;3.70;1.23;;;19.60;99.90;;;;;;5079391;28;20107;-78
2022/05/12 11:21:19;;;;;;;7.15;2.25;;;19.50;99.90;;;;;;5043727;28;20036;-78
2022/05/12 11:24:24;;;;;;;5.10;1.33;;;19.60;99.90;;;;;;5024268;28;20140;-79
2022/05/12 11:27:04;;;;;;;2.75;1.08;;;19.80;99.90;;;;;;5030102;28;20084;-78
2022/05/12 11:29:48;;;;;;;3.58;1.23;;;19.80;99.90;;;;;;5062168;28;20045;-77
2022/05/12 11:32:38;;;;;;;4.78;1.42;;;19.90;99.80;;;;;;5081360;28;20048;-79
2022/05/12 11:35:21;;;;;;;4.90;1.40;;;20.00;99.60;;;;;;5045696;28;20092;-78
2022/05/12 11:37:55;;;;;;;6.50;1.27;;;20.10;99.60;;;;;;5080559;28;20049;-78
2022/05/12 11:40:48;;;;;;;3.25;1.20;;;20.30;99.40;;;;;;5080245;28;20037;-79
2022/05/12 11:46:23;;;;;;;3.95;1.25;;;20.30;98.80;;;;;;5079537;28;20049;-78
2022/05/12 11:49:22;;;;;;;5.35;1.23;;;20.20;98.80;;;;;;5082124;28;20041;-79
2022/05/12 11:51:50;;;;;;;4.10;1.30;;;20.10;99.30;;;;;;5045111;28;20048;-79
2022/05/12 11:54:36;;;;;;;3.00;1.42;;;20.20;99.40;;;;;;5046235;28;20386;-78
2022/05/12 11:57:05;;;;;;;5.25;1.08;;;20.20;98.80;;;;;;5028281;28;20049;-78
2022/05/12 11:59:31;;;;;;;4.13;1.10;;;20.00;97.90;;;;;;5032277;28;20112;-79
2022/05/12 12:02:01;;;;;;;4.32;0.90;;;20.00;97.30;;;;;;5082717;28;20140;-79
2022/05/12 12:04:51;;;;;;;2.80;0.90;;;20.00;97.20;;;;;;5031721;28;20049;-79
2022/05/12 12:07:37;;;;;;;2.53;0.80;;;20.00;96.50;;;;;;5048891;28;20032;-80
2022/05/12 12:10:25;;;;;;;2.50;1.13;;;20.00;97.10;;;;;;5079762;28;20045;-79
2022/05/12 12:13:00;;;;;;;3.22;1.02;;;20.20;96.90;;;;;;5050280;28;20179;-80
2022/05/12 12:15:28;;;;;;;;;;;20.20;96.00;;;;;;5064596;28;20109;-81
2022/05/12 12:17:54;;;;;;;1.67;0.80;;;20.20;96.40;;;;;;5082830;28;19927;-76
2022/05/12 12:20:29;;;;;;;3.30;1.20;;;20.20;96.00;;;;;;5025705;28;20044;-80
2022/05/12 12:23:29;;;;;;;2.70;0.95;;;20.20;96.30;;;;;;5032349;28;20052;-81
2022/05/12 12:26:28;;;;;;;2.92;1.30;;;20.10;96.40;;;;;;5065033;28;20528;-81
2022/05/12 12:29:08;;;;;;;3.70;1.20;;;20.00;97.20;;;;;;5064023;28;20045;-81
2022/05/12 12:31:37;;;;;;;3.85;1.00;;;20.00;97.20;;;;;;5030754;28;20057;-80
2022/05/12 12:34:21;;;;;;;4.15;1.00;;;19.80;97.50;;;;;;5065414;28;20122;-80
2022/05/12 12:36:50;;;;;;;4.78;1.25;;;19.80;97.60;;;;;;5023780;28;20045;-80
2022/05/12 12:39:36;;;;;;;3.30;1.00;;;19.80;98.10;;;;;;5060971;28;20409;-81
2022/05/12 12:42:05;;;;;;;;;;;19.90;98.30;;;;;;5042389;28;20053;-75
2022/05/12 12:44:31;;;;;;;5.65;1.27;;;19.80;98.50;;;;;;5080998;28;19921;-79
2022/05/12 12:47:15;;;;;;;2.63;1.02;;;19.80;98.80;;;;;;5049000;28;20120;-76
2022/05/12 12:50:03;;;;;;;4.22;1.20;;;19.90;98.50;;;;;;5030762;28;20386;-76
2022/05/12 12:52:28;;;;;;;5.15;1.15;;;19.80;98.70;;;;;;5031955;28;20482;-80
2022/05/12 12:57:45;;;;;;;3.83;1.30;;;19.60;99.10;;;;;;5066711;28;20074;-80
2022/05/12 13:00:26;;;;;;;5.72;1.40;;;19.50;99.30;;;;;;5079825;28;20797;-82
2022/05/12 13:03:02;;;;;;;4.88;1.30;;;19.40;99.80;;;;;;5064929;28;20080;-78
2022/05/12 13:05:29;;;;;;;5.20;1.40;;;19.50;99.90;;;;;;5045309;28;20084;-79
2022/05/12 13:07:59;;;;;;;6.03;1.65;;;19.50;99.90;;;;;;5045773;28;20080;-79
2022/05/12 13:10:26;;;;;;;4.65;1.33;;;19.50;99.90;;;;;;5046242;28;20516;-80
2022/05/12 13:13:04;;;;;;;4.95;1.40;;;19.50;99.90;;;;;;5044951;28;20399;-77
2022/05/12 13:15:33;;;;;;;3.38;1.33;;;19.10;99.90;;;;;;5044887;28;20394;-81
2022/05/12 13:18:04;;;;;;;4.88;1.30;;;19.60;99.90;;;;;;5045852;28;20099;-80
2022/05/12 13:20:40;;;;;;;5.63;1.40;;;19.60;99.90;;;;;;5046121;28;20052;-78
2022/05/12 13:23:09;;;;;;;5.18;1.45;;;19.60;99.90;;;;;;5047266;28;20059;-82
2022/05/12 13:25:41;;;;;;;4.88;1.85;;;19.60;99.90;;;;;;5044987;28;20091;-80
2022/05/12 13:28:11;;;;;;;5.40;1.40;;;19.60;99.90;;;;;;5079202;28;20049;-76
2022/05/12 13:30:40;;;;;;;4.80;1.27;;;19.50;99.90;;;;;;5045654;28;20091;-79